Time;durP1;ratioP1;P1;durP2;ratioP2;P2;SDS_P1;SDS_P2;PMS_P1;PMS_P2;Temp;Humidity;BMP_temperature;BMP_pressure;BME280_temperature;BME280_humidity;BME280_pressure;Samples;Min_cycle;Max_cycle;Signal;HPM_P1;HPM_P2
2022/08/21 00:02:25;;;;;;;3.47;1.48;;;21.20;77.20;;;;;;5095699;28;20024;-84
2022/08/21 00:04:51;;;;;;;3.20;0.90;;;21.20;77.40;;;;;;5097399;28;20039;-82
2022/08/21 00:07:19;;;;;;;2.92;1.25;;;21.20;77.70;;;;;;5079221;28;20093;-82
2022/08/21 00:09:45;;;;;;;2.53;1.13;;;21.20;77.80;;;;;;5079171;28;20032;-82
2022/08/21 00:12:11;;;;;;;6.10;1.40;;;21.10;77.90;;;;;;5078794;28;20165;-81
2022/08/21 00:14:37;;;;;;;4.20;1.10;;;21.10;78.30;;;;;;5096103;28;20073;-78
2022/08/21 00:17:04;;;;;;;4.72;1.33;;;21.00;78.60;;;;;;5078490;28;20518;-78
2022/08/21 00:19:31;;;;;;;3.45;1.33;;;21.00;78.90;;;;;;5078967;28;20024;-81
2022/08/21 00:21:57;;;;;;;2.63;1.30;;;20.90;79.20;;;;;;5097056;28;20032;-78
2022/08/21 00:24:23;;;;;;;2.00;1.10;;;20.90;79.50;;;;;;5095239;28;20027;-79
2022/08/21 00:26:49;;;;;;;2.80;1.08;;;20.90;79.90;;;;;;5078897;28;20093;-78
2022/08/21 00:29:16;;;;;;;2.75;1.30;;;20.80;80.20;;;;;;5078082;28;20024;-78
2022/08/21 00:31:42;;;;;;;5.25;1.60;;;20.80;80.60;;;;;;5078590;28;20031;-78
2022/08/21 00:34:08;;;;;;;4.63;1.30;;;20.70;80.80;;;;;;5095986;28;20077;-80
2022/08/21 00:36:35;;;;;;;4.38;1.20;;;20.70;81.10;;;;;;5078695;28;20032;-80
2022/08/21 00:39:02;;;;;;;3.22;1.40;;;20.70;81.50;;;;;;5078603;28;20520;-78
2022/08/21 00:41:28;;;;;;;3.78;1.40;;;20.60;81.70;;;;;;5094375;28;20517;-79
2022/08/21 00:43:54;;;;;;;2.47;1.23;;;20.60;82.00;;;;;;5095376;28;20085;-79
2022/08/21 00:46:20;;;;;;;3.70;1.65;;;20.50;82.30;;;;;;5095075;28;20031;-79
2022/08/21 00:48:46;;;;;;;4.75;1.27;;;20.50;82.60;;;;;;5095741;28;20108;-83
2022/08/21 00:51:25;;;;;;;1.98;1.08;;;20.50;82.90;;;;;;5078506;28;20035;-83
2022/08/21 00:53:55;;;;;;;4.00;1.23;;;20.40;83.20;;;;;;5078746;28;20028;-83
2022/08/21 00:56:23;;;;;;;5.57;1.45;;;20.40;83.30;;;;;;5094766;28;20085;-86
2022/08/21 00:58:49;;;;;;;2.97;1.20;;;20.40;83.60;;;;;;5078324;28;20115;-82
2022/08/21 01:01:15;;;;;;;3.83;1.15;;;20.40;83.70;;;;;;5095601;28;20052;-82
2022/08/21 01:03:41;;;;;;;3.03;1.17;;;20.30;84.00;;;;;;5094991;28;20055;-83
2022/08/21 01:06:08;;;;;;;5.45;1.52;;;20.30;84.20;;;;;;5094498;28;20035;-82
2022/08/21 01:08:34;;;;;;;6.90;1.77;;;20.30;84.40;;;;;;5095158;28;20155;-81
2022/08/21 01:11:01;;;;;;;3.63;1.50;;;20.30;84.60;;;;;;5078177;28;20028;-80
2022/08/21 01:13:30;;;;;;;4.78;2.00;;;20.30;84.70;;;;;;5077546;28;20123;-82
2022/08/21 01:15:59;;;;;;;1.88;1.15;;;20.30;84.90;;;;;;5078211;28;20503;-80
2022/08/21 01:18:26;;;;;;;9.55;4.90;;;20.30;85.20;;;;;;5095405;28;20016;-80
2022/08/21 01:21:00;;;;;;;7.45;2.90;;;20.30;85.60;;;;;;5078027;28;20020;-80
2022/08/21 01:23:26;;;;;;;5.45;1.85;;;20.20;86.00;;;;;;5077641;28;20267;-80
2022/08/21 01:25:51;;;;;;;4.25;1.60;;;20.20;86.30;;;;;;5095728;28;20046;-81
2022/08/21 01:28:19;;;;;;;4.57;1.60;;;20.20;86.50;;;;;;5094548;28;20024;-80
2022/08/21 01:30:44;;;;;;;3.50;2.03;;;20.10;86.90;;;;;;5077865;28;20024;-81
2022/08/21 01:33:10;;;;;;;4.65;1.48;;;20.10;86.80;;;;;;5093786;28;20036;-83
2022/08/21 01:35:36;;;;;;;6.10;1.88;;;20.10;87.10;;;;;;5094107;28;20035;-84
2022/08/21 01:38:02;;;;;;;3.53;1.35;;;20.10;87.20;;;;;;5094467;28;20081;-80
2022/08/21 01:40:28;;;;;;;3.25;1.33;;;20.10;87.30;;;;;;5094633;28;20044;-81
2022/08/21 01:42:54;;;;;;;5.25;1.85;;;20.10;87.80;;;;;;5094556;28;20028;-81
2022/08/21 01:45:20;;;;;;;3.55;2.10;;;20.00;87.90;;;;;;5094654;28;20453;-83
2022/08/21 01:47:46;;;;;;;6.03;2.17;;;20.00;88.70;;;;;;5095337;28;20027;-81
2022/08/21 01:50:15;;;;;;;3.75;1.88;;;20.00;88.30;;;;;;5093803;28;20028;-80
2022/08/21 01:52:41;;;;;;;5.68;1.83;;;20.00;88.60;;;;;;5077608;28;20062;-81
2022/08/21 01:55:08;;;;;;;3.05;1.40;;;19.90;89.00;;;;;;5094352;28;20461;-81
2022/08/21 01:57:35;;;;;;;4.63;1.50;;;19.90;89.20;;;;;;5077309;28;20028;-82
2022/08/21 02:00:00;;;;;;;5.50;1.58;;;19.80;89.40;;;;;;5095139;28;20052;-81
2022/08/21 02:02:26;;;;;;;2.10;1.30;;;19.80;89.70;;;;;;5093495;28;20059;-81
2022/08/21 02:04:52;;;;;;;3.42;1.60;;;19.80;89.80;;;;;;5095031;28;20035;-81
2022/08/21 02:07:18;;;;;;;3.35;1.80;;;19.80;89.90;;;;;;5076509;28;20020;-81
2022/08/21 02:09:44;;;;;;;5.70;1.48;;;19.70;89.90;;;;;;5094132;28;20046;-81
2022/08/21 02:12:11;;;;;;;5.82;1.52;;;19.70;90.10;;;;;;5093558;28;20024;-80
2022/08/21 02:14:37;;;;;;;6.00;1.88;;;19.60;90.20;;;;;;5094889;28;20028;-81
2022/08/21 02:17:03;;;;;;;6.60;1.60;;;19.50;90.30;;;;;;5077054;28;20035;-82
2022/08/21 02:19:29;;;;;;;3.88;1.52;;;19.50;90.50;;;;;;5094101;28;20256;-81
2022/08/21 02:21:54;;;;;;;5.70;1.50;;;19.50;90.70;;;;;;5094792;28;20020;-82
2022/08/21 02:24:20;;;;;;;5.95;2.22;;;19.40;90.70;;;;;;5093197;28;20028;-81
2022/08/21 02:26:46;;;;;;;3.15;1.65;;;19.30;90.90;;;;;;5093920;28;20077;-81
2022/08/21 02:29:12;;;;;;;4.20;1.55;;;19.30;91.10;;;;;;5093130;28;20381;-81
2022/08/21 02:31:38;;;;;;;4.63;1.60;;;19.20;91.30;;;;;;5094549;28;20031;-79
2022/08/21 02:34:04;;;;;;;5.00;1.52;;;19.20;91.40;;;;;;5093984;28;20028;-79
2022/08/21 02:36:30;;;;;;;4.32;1.80;;;19.10;91.60;;;;;;5075913;28;20294;-79
2022/08/21 02:38:55;;;;;;;5.60;1.88;;;19.10;91.80;;;;;;5076316;28;20165;-79
2022/08/21 02:41:22;;;;;;;3.65;1.50;;;19.10;91.90;;;;;;5093525;28;20048;-79
2022/08/21 02:43:48;;;;;;;3.08;1.30;;;19.10;92.10;;;;;;5076383;28;20106;-81
2022/08/21 02:46:17;;;;;;;5.35;1.73;;;19.00;92.20;;;;;;5092889;28;20031;-80
2022/08/21 02:48:43;;;;;;;3.95;1.65;;;19.00;92.30;;;;;;5076188;28;20059;-81
2022/08/21 02:51:12;;;;;;;3.78;1.95;;;19.00;92.40;;;;;;5094392;28;20055;-81
2022/08/21 02:53:39;;;;;;;4.25;1.77;;;19.00;92.40;;;;;;5076351;28;20025;-80
2022/08/21 02:56:08;;;;;;;4.28;1.80;;;19.00;92.60;;;;;;5076167;28;20028;-81
2022/08/21 02:58:38;;;;;;;4.13;1.67;;;19.00;92.80;;;;;;5092666;28;20016;-81
2022/08/21 03:01:04;;;;;;;4.50;1.10;;;18.90;92.80;;;;;;5076266;28;20028;-80
2022/08/21 03:03:30;;;;;;;5.72;1.98;;;18.90;92.90;;;;;;5075340;28;20118;-80
2022/08/21 03:05:56;;;;;;;5.05;1.45;;;19.00;92.90;;;;;;5092996;28;20054;-78
2022/08/21 03:08:22;;;;;;;3.20;1.70;;;19.00;92.90;;;;;;5075646;28;20028;-79
2022/08/21 03:10:50;;;;;;;4.82;1.65;;;19.00;92.90;;;;;;5075845;28;20028;-78
2022/08/21 03:13:17;;;;;;;4.93;1.75;;;19.10;93.00;;;;;;5075798;28;20039;-78
2022/08/21 03:15:43;;;;;;;3.85;1.80;;;19.10;93.10;;;;;;5075623;28;20492;-78
2022/08/21 03:18:10;;;;;;;8.93;1.70;;;19.00;93.10;;;;;;5092937;28;20102;-79
2022/08/21 03:20:37;;;;;;;4.25;1.65;;;19.10;93.30;;;;;;5075231;28;20453;-79
2022/08/21 03:23:04;;;;;;;4.80;1.60;;;19.00;93.30;;;;;;5093731;28;20039;-78
2022/08/21 03:25:33;;;;;;;4.85;1.80;;;19.00;93.40;;;;;;5075281;28;20024;-80
2022/08/21 03:28:14;;;;;;;3.53;1.40;;;19.00;93.40;;;;;;5093693;28;20028;-80
2022/08/21 03:30:45;;;;;;;5.25;1.90;;;19.00;93.50;;;;;;5075962;28;20030;-78
2022/08/21 03:33:10;;;;;;;5.20;1.77;;;19.00;93.60;;;;;;5093967;28;20027;-79
2022/08/21 03:35:36;;;;;;;3.58;1.48;;;18.90;93.60;;;;;;5093334;28;20028;-79
2022/08/21 03:38:02;;;;;;;4.10;1.70;;;18.90;93.60;;;;;;5092066;28;20047;-79
2022/08/21 03:40:27;;;;;;;4.05;1.70;;;18.90;93.80;;;;;;5091825;28;20142;-79
2022/08/21 03:42:53;;;;;;;2.05;1.63;;;18.80;93.90;;;;;;5092853;28;20025;-79
2022/08/21 03:45:20;;;;;;;6.25;2.03;;;18.90;94.00;;;;;;5092054;28;20372;-78
2022/08/21 03:47:59;;;;;;;3.70;1.70;;;18.90;94.00;;;;;;5075585;28;20476;-79
2022/08/21 03:50:26;;;;;;;2.78;1.48;;;18.90;94.10;;;;;;5075199;28;20024;-78
2022/08/21 03:52:52;;;;;;;6.80;2.00;;;18.90;94.30;;;;;;5075480;28;20036;-78
2022/08/21 03:55:17;;;;;;;6.13;1.80;;;18.90;94.30;;;;;;5092240;28;20401;-78
2022/08/21 03:57:43;;;;;;;4.68;1.58;;;18.90;94.50;;;;;;5092501;28;20366;-78
2022/08/21 04:00:11;;;;;;;4.00;1.60;;;18.90;94.60;;;;;;5092447;28;20078;-78
2022/08/21 04:02:38;;;;;;;7.13;2.05;;;18.90;94.80;;;;;;5075040;28;20035;-78
2022/08/21 04:05:05;;;;;;;2.95;1.85;;;18.80;94.90;;;;;;5093157;28;20076;-78
2022/08/21 04:07:31;;;;;;;5.07;1.90;;;18.80;94.90;;;;;;5074679;28;20124;-78
2022/08/21 04:09:56;;;;;;;6.53;2.10;;;18.80;95.00;;;;;;5095499;28;20060;-80
2022/08/21 04:12:23;;;;;;;4.20;1.77;;;18.70;95.00;;;;;;5095917;28;20040;-79
2022/08/21 04:14:51;;;;;;;3.63;1.83;;;18.60;95.10;;;;;;5096232;28;20042;-80
2022/08/21 04:17:17;;;;;;;5.93;1.83;;;18.50;95.20;;;;;;5096855;28;20078;-79
2022/08/21 04:19:43;;;;;;;4.70;1.80;;;18.40;95.30;;;;;;5079114;28;20031;-80
2022/08/21 04:22:08;;;;;;;4.00;1.77;;;18.30;95.40;;;;;;5096863;28;20024;-80
2022/08/21 04:24:34;;;;;;;3.90;1.95;;;18.20;95.60;;;;;;5096487;28;20028;-79
2022/08/21 04:27:00;;;;;;;3.63;1.48;;;18.20;95.60;;;;;;5095918;28;20552;-79
2022/08/21 04:29:25;;;;;;;3.03;1.40;;;18.10;95.80;;;;;;5078519;28;20032;-79
2022/08/21 04:31:52;;;;;;;4.50;1.90;;;18.10;96.00;;;;;;5097061;28;20032;-79
2022/08/21 04:34:18;;;;;;;8.00;1.95;;;18.20;96.00;;;;;;5095452;28;20050;-79
2022/08/21 04:36:43;;;;;;;4.85;1.92;;;18.10;95.90;;;;;;5079043;28;20032;-79
2022/08/21 04:39:09;;;;;;;2.92;1.70;;;18.10;96.00;;;;;;5095675;28;20077;-78
2022/08/21 04:41:35;;;;;;;5.75;1.80;;;18.10;96.00;;;;;;5077435;28;20083;-77
2022/08/21 04:44:02;;;;;;;3.13;1.80;;;18.10;96.10;;;;;;5078247;28;20036;-78
2022/08/21 04:46:28;;;;;;;4.43;1.75;;;18.10;96.10;;;;;;5077988;28;20024;-79
2022/08/21 04:48:54;;;;;;;4.50;1.75;;;18.00;96.10;;;;;;5095523;28;20385;-79
2022/08/21 04:51:23;;;;;;;3.70;1.77;;;18.10;96.10;;;;;;5095829;28;20397;-78
2022/08/21 04:53:55;;;;;;;5.22;1.70;;;18.10;96.00;;;;;;5078468;28;20024;-79
2022/08/21 04:56:20;;;;;;;;;;;18.10;96.00;;;;;;5078636;28;20127;-79
2022/08/21 04:58:49;;;;;;;2.97;1.70;;;18.10;96.20;;;;;;5078365;28;19955;-78
2022/08/21 05:01:18;;;;;;;3.08;1.67;;;18.10;96.10;;;;;;5096154;28;20516;-80
2022/08/21 05:03:48;;;;;;;4.07;2.05;;;18.00;96.10;;;;;;5095520;28;20098;-80
2022/08/21 05:06:16;;;;;;;6.45;2.08;;;18.10;96.20;;;;;;5095229;28;20020;-81
2022/08/21 05:08:44;;;;;;;4.57;2.10;;;18.00;96.20;;;;;;5094768;28;20126;-80
2022/08/21 05:11:11;;;;;;;7.32;1.75;;;18.00;96.30;;;;;;5096189;28;20074;-80
2022/08/21 05:13:36;;;;;;;4.68;1.77;;;18.00;96.30;;;;;;5077682;28;20114;-80
2022/08/21 05:16:02;;;;;;;5.85;1.70;;;18.00;96.30;;;;;;5095416;28;20066;-81
2022/08/21 05:18:28;;;;;;;5.57;2.05;;;18.00;96.30;;;;;;5094707;28;20115;-80
2022/08/21 05:20:54;;;;;;;4.72;1.75;;;18.00;96.30;;;;;;5093605;28;20040;-80
2022/08/21 05:23:20;;;;;;;4.57;1.67;;;18.00;96.30;;;;;;5077953;28;20043;-81
2022/08/21 05:25:45;;;;;;;4.78;1.55;;;18.00;96.30;;;;;;5095726;28;20027;-80
2022/08/21 05:28:12;;;;;;;4.47;2.05;;;18.00;96.30;;;;;;5094361;28;20028;-81
2022/08/21 05:30:38;;;;;;;5.05;2.15;;;18.00;96.20;;;;;;5093929;28;20024;-80
2022/08/21 05:33:05;;;;;;;5.25;1.85;;;18.00;96.20;;;;;;5077759;28;20046;-81
2022/08/21 05:35:32;;;;;;;6.88;1.88;;;18.00;96.20;;;;;;5095248;28;20032;-81
2022/08/21 05:37:59;;;;;;;4.72;1.70;;;18.00;96.30;;;;;;5094812;28;20036;-82
2022/08/21 05:40:25;;;;;;;6.18;1.77;;;18.10;96.20;;;;;;5076923;28;20044;-80
2022/08/21 05:42:53;;;;;;;4.35;1.70;;;18.10;96.20;;;;;;5077585;28;20032;-81
2022/08/21 05:45:19;;;;;;;4.50;2.00;;;18.10;96.10;;;;;;5077353;28;20056;-83
2022/08/21 05:47:44;;;;;;;3.58;1.90;;;18.10;96.00;;;;;;5094716;28;20116;-80
2022/08/21 05:50:10;;;;;;;3.47;1.63;;;18.20;96.00;;;;;;5094799;28;20025;-80
2022/08/21 05:52:36;;;;;;;4.60;1.85;;;18.20;95.90;;;;;;5076912;28;20445;-81
2022/08/21 05:55:01;;;;;;;5.05;1.77;;;18.20;95.90;;;;;;5093995;28;20080;-79
2022/08/21 05:57:27;;;;;;;3.25;1.60;;;18.30;95.90;;;;;;5094662;28;20067;-78
2022/08/21 05:59:53;;;;;;;6.85;1.98;;;18.30;95.90;;;;;;5095201;28;20113;-79
2022/08/21 06:02:20;;;;;;;4.20;1.70;;;18.30;95.80;;;;;;5094965;28;20078;-79
2022/08/21 06:04:46;;;;;;;5.28;1.80;;;18.30;95.60;;;;;;5076445;28;20032;-79
2022/08/21 06:07:11;;;;;;;5.00;2.20;;;18.40;95.50;;;;;;5093940;28;20032;-80
2022/08/21 06:09:37;;;;;;;3.47;1.92;;;18.40;95.40;;;;;;5093179;28;20095;-79
2022/08/21 06:12:12;;;;;;;4.03;1.85;;;18.50;95.30;;;;;;5093920;28;20032;-79
2022/08/21 06:14:39;;;;;;;3.75;1.60;;;18.50;95.20;;;;;;5076333;28;20028;-79
2022/08/21 06:17:08;;;;;;;5.70;2.20;;;18.50;95.10;;;;;;5076987;28;20031;-79
2022/08/21 06:19:34;;;;;;;5.75;1.70;;;18.60;95.10;;;;;;5076439;28;20425;-80
2022/08/21 06:22:00;;;;;;;5.90;2.00;;;18.60;95.00;;;;;;5095059;28;20085;-82
2022/08/21 06:24:26;;;;;;;3.47;1.65;;;18.70;95.10;;;;;;5093164;28;20028;-80
2022/08/21 06:26:53;;;;;;;6.60;1.98;;;18.70;95.00;;;;;;5094514;28;20117;-80
2022/08/21 06:29:19;;;;;;;5.13;1.95;;;18.70;95.10;;;;;;5093630;28;20028;-80
2022/08/21 06:31:46;;;;;;;5.03;2.33;;;18.80;95.10;;;;;;5076186;28;20031;-80
2022/08/21 06:34:12;;;;;;;4.45;2.90;;;18.80;95.00;;;;;;5076042;28;20129;-80
2022/08/21 06:36:38;;;;;;;5.38;1.70;;;18.80;95.00;;;;;;5093908;28;20020;-80
2022/08/21 06:39:04;;;;;;;5.82;1.50;;;18.90;95.00;;;;;;5093701;28;20024;-80
2022/08/21 06:41:30;;;;;;;5.45;1.98;;;18.90;94.90;;;;;;5093826;28;20105;-80
2022/08/21 06:43:56;;;;;;;6.63;1.90;;;19.00;94.90;;;;;;5075561;28;20081;-78
2022/08/21 06:46:24;;;;;;;6.68;1.90;;;19.10;94.90;;;;;;5076152;28;20028;-78
2022/08/21 06:48:49;;;;;;;5.05;1.70;;;19.10;95.00;;;;;;5075591;28;20024;-77
2022/08/21 06:51:15;;;;;;;3.90;2.22;;;19.10;94.80;;;;;;5094005;28;20107;-78
2022/08/21 06:53:41;;;;;;;3.92;1.60;;;19.10;94.80;;;;;;5092275;28;20109;-79
2022/08/21 06:56:06;;;;;;;4.20;2.42;;;19.20;94.90;;;;;;5073169;28;20044;-78
2022/08/21 06:58:32;;;;;;;5.18;1.90;;;19.20;94.80;;;;;;5055497;28;20087;-77
2022/08/21 07:00:58;;;;;;;7.32;1.88;;;19.20;94.80;;;;;;5055853;28;20025;-78
2022/08/21 07:03:36;;;;;;;4.22;1.80;;;19.20;94.90;;;;;;5055679;28;20032;-77
2022/08/21 07:06:04;;;;;;;5.75;1.90;;;19.30;94.80;;;;;;5073708;28;20033;-78
2022/08/21 07:08:30;;;;;;;3.22;1.70;;;19.30;94.60;;;;;;5055469;28;20029;-79
2022/08/21 07:10:59;;;;;;;5.35;1.80;;;19.40;94.60;;;;;;5055693;28;20379;-79
2022/08/21 07:13:26;;;;;;;4.80;1.75;;;19.40;94.50;;;;;;5073404;28;20043;-79
2022/08/21 07:15:52;;;;;;;6.38;1.90;;;19.50;94.60;;;;;;5073126;28;20037;-79
2022/08/21 07:18:18;;;;;;;4.03;1.77;;;19.50;94.60;;;;;;5056133;28;20027;-79
2022/08/21 07:20:44;;;;;;;4.25;1.85;;;19.60;94.90;;;;;;5055348;28;20119;-79
2022/08/21 07:23:27;;;;;;;3.70;1.98;;;19.60;95.00;;;;;;5055758;28;20025;-79
2022/08/21 07:25:53;;;;;;;2.53;1.70;;;19.60;94.70;;;;;;5055602;28;20031;-79
2022/08/21 07:28:18;;;;;;;3.22;1.60;;;19.70;94.50;;;;;;5073468;28;20024;-79
2022/08/21 07:30:45;;;;;;;3.63;1.73;;;19.70;94.50;;;;;;5055175;28;20106;-79
2022/08/21 07:33:11;;;;;;;3.88;1.60;;;19.80;94.60;;;;;;5055507;28;20111;-79
2022/08/21 07:35:36;;;;;;;3.92;1.90;;;19.80;94.60;;;;;;5055034;28;20036;-79
2022/08/21 07:38:02;;;;;;;5.53;2.40;;;19.80;94.60;;;;;;5073907;28;20028;-82
2022/08/21 07:40:27;;;;;;;7.30;3.17;;;19.90;95.30;;;;;;5055620;28;20439;-83
2022/08/21 07:42:54;;;;;;;4.05;2.92;;;19.90;95.20;;;;;;5055678;28;20116;-82
2022/08/21 07:45:21;;;;;;;4.25;2.03;;;19.90;95.10;;;;;;5076757;28;20025;-83
2022/08/21 07:47:47;;;;;;;5.55;2.08;;;20.00;95.10;;;;;;5059330;28;20028;-83
2022/08/21 07:50:14;;;;;;;7.10;2.10;;;20.00;94.90;;;;;;5059751;28;20461;-82
2022/08/21 07:52:41;;;;;;;6.28;2.40;;;20.10;94.70;;;;;;5059347;28;20421;-81
2022/08/21 07:55:10;;;;;;;7.45;2.28;;;20.10;94.70;;;;;;5059532;28;20481;-81
2022/08/21 07:57:36;;;;;;;4.05;1.75;;;20.20;94.60;;;;;;5058881;28;20067;-79
2022/08/21 08:00:05;;;;;;;7.53;1.92;;;20.20;94.50;;;;;;5059309;28;20079;-80
2022/08/21 08:02:31;;;;;;;6.05;1.73;;;20.20;94.20;;;;;;5058735;28;20119;-78
2022/08/21 08:05:03;;;;;;;4.18;1.95;;;20.30;93.60;;;;;;5059027;28;20087;-79
2022/08/21 08:07:29;;;;;;;5.28;1.77;;;20.40;93.30;;;;;;5059112;28;20067;-79
2022/08/21 08:09:55;;;;;;;3.95;1.80;;;20.40;93.00;;;;;;5058074;28;20056;-79
2022/08/21 08:12:22;;;;;;;5.80;2.20;;;20.50;92.80;;;;;;5059017;28;20074;-79
2022/08/21 08:14:48;;;;;;;5.28;1.70;;;20.50;92.50;;;;;;5075994;28;20028;-80
2022/08/21 08:17:13;;;;;;;5.40;1.63;;;20.50;92.40;;;;;;5058723;28;20480;-79
2022/08/21 08:19:39;;;;;;;6.15;2.20;;;20.60;92.30;;;;;;5076174;28;20082;-79
2022/08/21 08:22:19;;;;;;;4.93;1.92;;;20.60;92.10;;;;;;5058779;28;20024;-79
2022/08/21 08:24:46;;;;;;;5.03;1.83;;;20.70;92.00;;;;;;5075635;28;20032;-79
2022/08/21 08:27:11;;;;;;;5.50;1.90;;;20.70;92.00;;;;;;5076118;28;20024;-79
2022/08/21 08:29:37;;;;;;;6.10;2.10;;;20.80;91.90;;;;;;5058085;28;20028;-79
2022/08/21 08:32:07;;;;;;;5.10;2.00;;;20.80;91.80;;;;;;5058524;28;20028;-80
2022/08/21 08:34:33;;;;;;;4.80;1.83;;;20.90;91.70;;;;;;5058094;28;20085;-79
2022/08/21 08:36:59;;;;;;;5.22;1.90;;;20.90;91.60;;;;;;5057446;28;20130;-79
2022/08/21 08:39:26;;;;;;;5.57;1.95;;;21.00;91.40;;;;;;5057840;28;20457;-79
2022/08/21 08:42:03;;;;;;;7.20;1.77;;;21.00;91.30;;;;;;5062492;28;20241;-79
2022/08/21 08:44:30;;;;;;;6.30;1.80;;;21.00;91.30;;;;;;5075398;28;20446;-81
2022/08/21 08:46:56;;;;;;;6.18;1.85;;;21.10;91.30;;;;;;5075215;28;20024;-81
2022/08/21 08:49:43;;;;;;;4.13;1.75;;;21.10;90.90;;;;;;5060976;28;20017;-79
2022/08/21 08:52:15;;;;;;;5.22;1.85;;;21.20;90.60;;;;;;5062562;28;20024;-81
2022/08/21 08:55:00;;;;;;;4.55;2.00;;;21.30;90.20;;;;;;5054229;28;20024;-79
2022/08/21 08:57:26;;;;;;;4.50;1.73;;;21.40;90.00;;;;;;5072810;28;20020;-79
2022/08/21 08:59:55;;;;;;;8.20;2.05;;;21.40;90.00;;;;;;5057107;28;20031;-78
2022/08/21 09:02:23;;;;;;;5.78;1.90;;;21.40;89.80;;;;;;5075573;28;20025;-80
2022/08/21 09:04:50;;;;;;;8.93;1.90;;;21.40;88.00;;;;;;5057187;28;20025;-82
2022/08/21 09:07:32;;;;;;;10.43;2.40;;;21.50;87.60;;;;;;5057769;28;20471;-81
2022/08/21 09:10:03;;;;;;;5.05;1.77;;;21.60;87.30;;;;;;5057129;28;20095;-79
2022/08/21 09:12:36;;;;;;;5.70;1.87;;;21.60;86.90;;;;;;5057421;28;20025;-81
2022/08/21 09:15:20;;;;;;;10.35;5.25;;;21.70;87.40;;;;;;5078211;28;20343;-82
2022/08/21 09:18:04;;;;;;;5.90;2.00;;;21.70;87.40;;;;;;5074999;28;20099;-76
2022/08/21 09:21:01;;;;;;;6.13;2.20;;;21.80;87.20;;;;;;5091191;28;20069;-77
2022/08/21 09:23:54;;;;;;;5.72;1.85;;;21.80;86.50;;;;;;5065821;28;20516;-77
2022/08/21 09:26:26;;;;;;;5.05;1.92;;;21.90;86.20;;;;;;5079905;28;20107;-77
2022/08/21 09:28:57;;;;;;;4.60;1.77;;;21.90;86.30;;;;;;5051791;28;20028;-77
2022/08/21 09:31:32;;;;;;;8.20;2.15;;;22.00;86.20;;;;;;5068398;28;20020;-77
2022/08/21 09:34:04;;;;;;;7.43;2.03;;;22.00;85.90;;;;;;5064488;28;20024;-81
2022/08/21 09:36:35;;;;;;;;;;;22.00;85.10;;;;;;5057501;28;20025;-81
2022/08/21 09:39:02;;;;;;;5.35;1.73;;;22.00;84.30;;;;;;5076755;28;19999;-81
2022/08/21 09:41:31;;;;;;;4.90;2.08;;;22.10;84.70;;;;;;5073456;28;20048;-80
2022/08/21 09:43:56;;;;;;;5.88;2.08;;;22.10;84.30;;;;;;5069959;28;20081;-81
2022/08/21 09:46:27;;;;;;;5.13;1.95;;;22.20;83.10;;;;;;5095209;28;20115;-80
2022/08/21 09:48:59;;;;;;;5.28;1.73;;;22.30;82.60;;;;;;5037163;28;20025;-84
2022/08/21 09:51:52;;;;;;;4.82;1.80;;;22.50;82.40;;;;;;5071341;28;20068;-81
2022/08/21 09:54:21;;;;;;;5.43;1.98;;;22.60;82.20;;;;;;5072893;28;20032;-78
2022/08/21 09:57:39;;;;;;;6.22;1.73;;;22.50;81.80;;;;;;5056320;28;20032;-79
2022/08/21 10:00:24;;;;;;;5.75;2.72;;;22.70;80.90;;;;;;5033211;28;20415;-79
2022/08/21 10:02:50;;;;;;;8.82;2.45;;;22.80;80.40;;;;;;5068691;28;20028;-78
2022/08/21 10:05:24;;;;;;;5.13;1.80;;;22.80;80.60;;;;;;5056636;28;20035;-78
2022/08/21 10:07:50;;;;;;;9.88;2.30;;;22.80;80.20;;;;;;5056165;28;20064;-85
2022/08/21 10:10:31;;;;;;;4.38;1.80;;;22.80;80.00;;;;;;5056919;28;20055;-85
2022/08/21 10:13:20;;;;;;;5.38;2.00;;;22.80;79.90;;;;;;5056279;28;20032;-81
2022/08/21 10:16:14;;;;;;;6.82;1.85;;;22.80;79.80;;;;;;5052059;28;20037;-79
2022/08/21 10:19:06;;;;;;;5.65;1.70;;;22.80;78.60;;;;;;5073830;28;20024;-81
2022/08/21 10:21:54;;;;;;;4.90;1.70;;;23.10;77.00;;;;;;5076710;28;20028;-83
2022/08/21 10:24:27;;;;;;;7.68;2.22;;;23.10;76.30;;;;;;5076746;28;20032;-82
2022/08/21 10:27:01;;;;;;;3.80;1.65;;;23.20;76.00;;;;;;5076089;28;20030;-84
2022/08/21 10:29:43;;;;;;;6.75;1.95;;;23.20;75.90;;;;;;5067853;28;20025;-81
2022/08/21 10:32:53;;;;;;;3.60;1.90;;;23.10;75.80;;;;;;5070424;28;20409;-80
2022/08/21 10:35:33;;;;;;;4.50;1.67;;;23.20;75.10;;;;;;5035597;28;20036;-82
2022/08/21 10:37:58;;;;;;;5.07;1.60;;;23.30;74.90;;;;;;5035670;28;20036;-81
2022/08/21 10:40:47;;;;;;;5.88;2.10;;;23.40;74.50;;;;;;5036058;28;20140;-81
2022/08/21 10:43:55;;;;;;;4.88;1.50;;;23.50;73.10;;;;;;5037821;28;20481;-81
2022/08/21 10:46:33;;;;;;;5.75;1.63;;;23.70;72.40;;;;;;5094285;28;20024;-81
2022/08/21 10:49:35;;;;;;;4.97;1.50;;;23.70;72.50;;;;;;5059825;28;20094;-81
2022/08/21 10:52:31;;;;;;;7.10;1.90;;;23.60;72.90;;;;;;5038025;28;20067;-82
2022/08/21 10:55:08;;;;;;;4.70;1.63;;;23.60;72.10;;;;;;5075487;28;20036;-81
2022/08/21 10:58:08;;;;;;;5.95;1.65;;;23.70;72.50;;;;;;5076278;28;20028;-82
2022/08/21 11:00:42;;;;;;;5.53;1.90;;;23.80;72.30;;;;;;5036100;28;20039;-81
2022/08/21 11:03:28;;;;;;;3.95;1.70;;;23.90;73.60;;;;;;5050829;28;20030;-82
2022/08/21 11:06:11;;;;;;;4.50;1.58;;;23.90;73.10;;;;;;5055572;28;20029;-82
2022/08/21 11:08:43;;;;;;;3.78;1.85;;;24.00;72.00;;;;;;5055439;28;20039;-81
2022/08/21 11:11:31;;;;;;;5.18;1.95;;;24.00;71.60;;;;;;5060469;28;20118;-82
2022/08/21 11:14:27;;;;;;;3.58;1.60;;;24.10;71.90;;;;;;5067926;28;20089;-83
2022/08/21 11:17:00;;;;;;;5.93;2.05;;;24.00;72.40;;;;;;5052225;28;20047;-82
2022/08/21 11:19:40;;;;;;;9.40;2.15;;;24.20;72.10;;;;;;5074487;28;20029;-82
2022/08/21 11:22:11;;;;;;;5.70;1.85;;;24.10;71.70;;;;;;5075766;28;20535;-83
2022/08/21 11:25:00;;;;;;;4.17;1.80;;;24.20;70.50;;;;;;5059079;28;20020;-83
2022/08/21 11:27:51;;;;;;;4.53;1.83;;;24.30;68.60;;;;;;5084570;28;20277;-83
2022/08/21 11:30:17;;;;;;;4.50;1.55;;;24.30;68.20;;;;;;5089121;28;20024;-83
2022/08/21 11:33:14;;;;;;;6.45;1.75;;;24.30;68.30;;;;;;5074200;28;20378;-87
2022/08/21 11:35:46;;;;;;;3.30;1.40;;;24.40;68.40;;;;;;5033536;28;20186;-84
2022/08/21 11:38:21;;;;;;;218.95;123.18;;;24.40;68.30;;;;;;5073308;28;20031;-86
2022/08/21 11:41:24;;;;;;;25.67;15.02;;;24.50;67.60;;;;;;5051598;28;20140;-80
2022/08/21 11:44:19;;;;;;;7.55;4.75;;;24.60;67.20;;;;;;5040247;28;20133;-80
2022/08/21 11:46:53;;;;;;;7.22;3.10;;;24.70;64.40;;;;;;5012448;28;20037;-79
2022/08/21 11:49:41;;;;;;;4.20;1.98;;;24.80;64.70;;;;;;5032781;28;20025;-78
2022/08/21 11:52:12;;;;;;;2.70;1.25;;;24.90;62.30;;;;;;5038354;28;20060;-80
2022/08/21 11:54:44;;;;;;;1.98;1.23;;;25.00;60.10;;;;;;5040125;28;20040;-82
2022/08/21 11:57:27;;;;;;;3.30;1.50;;;25.00;60.60;;;;;;5049009;28;20032;-81
2022/08/21 11:59:57;;;;;;;3.53;1.35;;;25.10;61.20;;;;;;5033915;28;20095;-80
2022/08/21 12:02:31;;;;;;;3.08;1.50;;;25.10;60.50;;;;;;5031956;28;20061;-81
2022/08/21 12:05:04;;;;;;;2.78;1.35;;;25.10;60.80;;;;;;5021287;28;20390;-82
2022/08/21 12:07:42;;;;;;;1.77;1.20;;;25.20;60.80;;;;;;5040204;28;20025;-81
2022/08/21 12:10:15;;;;;;;2.95;1.30;;;25.40;59.20;;;;;;5038611;28;20142;-83
2022/08/21 12:12:43;;;;;;;4.45;2.10;;;25.60;59.10;;;;;;5051345;28;20549;-81
2022/08/21 12:15:21;;;;;;;6.60;1.60;;;25.70;59.60;;;;;;5041603;28;20122;-81
2022/08/21 12:17:58;;;;;;;5.75;1.60;;;25.80;58.90;;;;;;5051351;28;20520;-81
2022/08/21 12:20:36;;;;;;;3.53;1.70;;;26.00;59.00;;;;;;5051953;28;20021;-80
2022/08/21 12:23:10;;;;;;;5.05;2.33;;;26.10;59.00;;;;;;5051539;28;20039;-84
2022/08/21 12:25:59;;;;;;;6.13;2.58;;;26.30;58.60;;;;;;5052728;28;20405;-83
2022/08/21 12:28:27;;;;;;;9.30;3.90;;;26.50;57.40;;;;;;5012260;28;20030;-83
2022/08/21 12:30:52;;;;;;;4.38;1.83;;;26.60;56.80;;;;;;5013719;28;20068;-82
2022/08/21 12:33:20;;;;;;;5.60;3.05;;;26.70;56.70;;;;;;5032846;28;20025;-82
2022/08/21 12:35:49;;;;;;;9.10;3.33;;;26.70;55.70;;;;;;5044509;28;20029;-82
2022/08/21 12:38:19;;;;;;;4.25;2.13;;;26.70;55.40;;;;;;5035523;28;20033;-81
2022/08/21 12:40:59;;;;;;;3.15;2.00;;;26.70;55.90;;;;;;5046757;28;20044;-80
2022/08/21 12:43:30;;;;;;;6.60;2.40;;;26.80;55.10;;;;;;5058604;28;20029;-82
2022/08/21 12:45:56;;;;;;;35.03;19.00;;;26.80;54.70;;;;;;5058128;28;20024;-82
2022/08/21 12:48:33;;;;;;;42.40;25.27;;;26.80;53.70;;;;;;5058367;28;20493;-83
2022/08/21 12:51:39;;;;;;;10.90;6.13;;;26.80;53.00;;;;;;5065172;28;20073;-84
2022/08/21 12:54:05;;;;;;;4.07;2.70;;;27.00;51.50;;;;;;5055585;28;20040;-84
2022/08/21 12:56:33;;;;;;;4.05;2.40;;;27.10;52.10;;;;;;5076623;28;20035;-82
2022/08/21 12:59:03;;;;;;;5.28;1.90;;;27.40;52.20;;;;;;5072937;28;20473;-83
2022/08/21 13:01:34;;;;;;;2.72;1.88;;;27.60;52.60;;;;;;5067215;28;20377;-84
2022/08/21 13:04:07;;;;;;;5.45;1.60;;;27.80;52.20;;;;;;5063882;28;20025;-82
2022/08/21 13:06:42;;;;;;;6.03;1.60;;;28.10;53.30;;;;;;5074249;28;20050;-82